Time;durP1;ratioP1;P1;durP2;ratioP2;P2;SDS_P1;SDS_P2;PMS_P1;PMS_P2;Temp;Humidity;BMP_temperature;BMP_pressure;BME280_temperature;BME280_humidity;BME280_pressure;Samples;Min_cycle;Max_cycle;Signal;HPM_P1;HPM_P2
2022/09/30 00:01:16;;;;;;;5.18;4.18;;;10.20;80.70;;;;;;5073719;28;20229;-73
2022/09/30 00:03:42;;;;;;;6.72;4.13;;;10.10;80.60;;;;;;5073586;28;20031;-72
2022/09/30 00:06:08;;;;;;;4.97;4.30;;;10.10;80.70;;;;;;5091348;28;20031;-72
2022/09/30 00:08:35;;;;;;;6.85;4.30;;;10.10;80.70;;;;;;5091190;28;20055;-72
2022/09/30 00:11:12;;;;;;;6.60;4.35;;;10.00;80.80;;;;;;5073046;28;20080;-72
2022/09/30 00:13:39;;;;;;;5.30;4.22;;;10.00;80.90;;;;;;5073064;28;20081;-73
2022/09/30 00:16:05;;;;;;;6.13;4.70;;;10.00;81.00;;;;;;5073172;28;20017;-72
2022/09/30 00:18:32;;;;;;;5.53;4.22;;;10.00;81.10;;;;;;5091146;28;20016;-72
2022/09/30 00:20:58;;;;;;;4.78;3.90;;;10.00;81.10;;;;;;5091170;28;20031;-73
2022/09/30 00:23:24;;;;;;;5.75;4.47;;;10.00;81.10;;;;;;5091140;28;20012;-70
2022/09/30 00:25:55;;;;;;;5.50;4.38;;;10.00;81.10;;;;;;5072872;28;20497;-72
2022/09/30 00:28:21;;;;;;;6.63;4.38;;;10.00;81.10;;;;;;5091213;28;20032;-73
2022/09/30 00:30:47;;;;;;;5.95;4.53;;;10.00;81.10;;;;;;5072880;28;20089;-71
2022/09/30 00:33:12;;;;;;;6.85;4.63;;;9.90;81.10;;;;;;5072976;28;20104;-71
2022/09/30 00:35:38;;;;;;;5.43;4.68;;;9.90;81.10;;;;;;5072817;28;20027;-71
2022/09/30 00:38:04;;;;;;;5.55;4.45;;;9.90;81.10;;;;;;5091367;28;20379;-72
2022/09/30 00:40:30;;;;;;;5.85;4.60;;;9.90;81.10;;;;;;5072946;28;20047;-72
2022/09/30 00:42:57;;;;;;;5.15;4.50;;;9.90;81.10;;;;;;5090973;28;20069;-72
2022/09/30 00:45:25;;;;;;;6.28;5.05;;;9.90;81.10;;;;;;5091193;28;20511;-72
2022/09/30 00:48:05;;;;;;;6.82;5.10;;;9.90;81.10;;;;;;5072865;28;20478;-73
2022/09/30 00:50:45;;;;;;;8.07;4.68;;;9.80;81.10;;;;;;5074089;28;20116;-72
2022/09/30 00:53:33;;;;;;;5.10;4.15;;;9.80;81.10;;;;;;5095073;28;20023;-72
2022/09/30 00:56:08;;;;;;;5.88;4.75;;;9.80;81.20;;;;;;5095060;28;20020;-72
2022/09/30 00:58:43;;;;;;;6.65;4.45;;;9.80;81.20;;;;;;5076833;28;20505;-72
2022/09/30 01:01:08;;;;;;;7.88;4.90;;;9.80;81.30;;;;;;5097285;28;20107;-73
2022/09/30 01:03:41;;;;;;;6.15;4.97;;;9.80;81.30;;;;;;5089741;28;20075;-75
2022/09/30 01:06:07;;;;;;;4.97;4.47;;;9.70;81.30;;;;;;5117808;27;20032;-74
2022/09/30 01:08:36;;;;;;;5.63;4.60;;;9.70;81.30;;;;;;5118845;27;20043;-74
2022/09/30 01:11:01;;;;;;;5.88;4.72;;;9.70;81.30;;;;;;5119032;27;20086;-75
2022/09/30 01:13:30;;;;;;;5.55;4.55;;;9.70;81.90;;;;;;5117204;28;20024;-75
2022/09/30 01:16:05;;;;;;;5.75;4.25;;;9.70;81.30;;;;;;5100151;27;20024;-74
2022/09/30 01:18:57;;;;;;;7.63;4.70;;;9.70;81.30;;;;;;5100607;28;20017;-74
2022/09/30 01:22:00;;;;;;;5.78;4.35;;;9.60;81.30;;;;;;5118634;27;20005;-75
2022/09/30 01:24:49;;;;;;;5.60;4.57;;;9.60;81.20;;;;;;5119513;27;20039;-74
2022/09/30 01:27:23;;;;;;;5.38;4.30;;;9.60;81.20;;;;;;5101295;28;20274;-74
2022/09/30 01:30:18;;;;;;;6.53;4.25;;;9.60;81.20;;;;;;5094613;28;20051;-73
2022/09/30 01:33:35;;;;;;;5.53;4.47;;;9.50;81.20;;;;;;5101328;28;20028;-73
2022/09/30 01:36:07;;;;;;;7.22;4.82;;;9.60;81.30;;;;;;5065573;28;20066;-73
2022/09/30 01:38:47;;;;;;;6.82;5.20;;;9.50;81.20;;;;;;5099322;28;20028;-73
2022/09/30 01:41:41;;;;;;;6.10;5.00;;;9.50;81.30;;;;;;5098934;28;20399;-73
2022/09/30 01:44:19;;;;;;;6.85;4.80;;;9.50;81.40;;;;;;5080732;28;20024;-73
2022/09/30 01:46:53;;;;;;;5.47;4.68;;;9.50;81.40;;;;;;5080121;28;20039;-74
2022/09/30 01:49:34;;;;;;;;;;;9.40;81.40;;;;;;5080429;28;20027;-73
2022/09/30 01:52:20;;;;;;;5.15;4.25;;;9.40;81.40;;;;;;5097508;28;19904;-73
2022/09/30 01:54:54;;;;;;;5.38;4.38;;;9.40;81.40;;;;;;5096200;28;20039;-74
2022/09/30 01:57:30;;;;;;;6.07;4.70;;;9.40;81.40;;;;;;5077023;28;20478;-74
2022/09/30 02:00:07;;;;;;;6.10;5.07;;;9.30;81.40;;;;;;5094901;28;20032;-74
2022/09/30 02:02:41;;;;;;;6.10;4.88;;;9.30;81.40;;;;;;5093419;28;20474;-74
2022/09/30 02:05:12;;;;;;;5.60;4.90;;;9.30;81.50;;;;;;5076247;28;20130;-73
2022/09/30 02:07:44;;;;;;;6.55;4.90;;;9.30;81.50;;;;;;5076156;28;20031;-74
2022/09/30 02:10:27;;;;;;;7.18;4.88;;;9.30;81.60;;;;;;5094047;28;20512;-73
2022/09/30 02:13:02;;;;;;;6.18;4.95;;;9.30;81.60;;;;;;5075913;28;20471;-74
2022/09/30 02:15:34;;;;;;;6.00;4.85;;;9.30;81.60;;;;;;5076044;28;20493;-74
2022/09/30 02:18:12;;;;;;;6.28;5.30;;;9.30;81.60;;;;;;5093831;28;20027;-74
2022/09/30 02:20:41;;;;;;;6.07;4.90;;;9.20;81.60;;;;;;5075565;28;20478;-74
2022/09/30 02:23:13;;;;;;;5.43;4.55;;;9.20;81.70;;;;;;5093621;28;20028;-74
2022/09/30 02:25:44;;;;;;;5.63;4.55;;;9.20;81.80;;;;;;5093342;28;20027;-73
2022/09/30 02:28:16;;;;;;;6.82;4.82;;;9.20;81.80;;;;;;5075016;28;20438;-73
2022/09/30 02:30:46;;;;;;;6.32;5.13;;;9.20;81.80;;;;;;5093275;28;20450;-74
2022/09/30 02:33:18;;;;;;;5.75;4.90;;;9.20;81.90;;;;;;5093133;28;20024;-74
2022/09/30 02:35:52;;;;;;;6.30;5.05;;;9.10;81.90;;;;;;5093415;28;20024;-73
2022/09/30 02:38:23;;;;;;;6.40;5.00;;;9.20;81.90;;;;;;5074618;28;20432;-74
2022/09/30 02:40:57;;;;;;;5.75;5.07;;;9.20;81.90;;;;;;5092910;28;20583;-74
2022/09/30 02:43:23;;;;;;;6.60;4.85;;;9.10;81.90;;;;;;5093035;28;20499;-74
2022/09/30 02:46:07;;;;;;;6.40;4.85;;;9.10;82.00;;;;;;5074626;28;20047;-74
2022/09/30 02:48:41;;;;;;;;;;;9.10;82.00;;;;;;5075272;28;20498;-74
2022/09/30 02:51:32;;;;;;;6.72;4.50;;;9.10;82.00;;;;;;5074509;28;19908;-74
2022/09/30 02:54:05;;;;;;;6.60;4.72;;;9.10;82.00;;;;;;5092736;28;20161;-74
2022/09/30 02:56:49;;;;;;;5.93;4.90;;;9.10;82.10;;;;;;5092508;28;20085;-74
2022/09/30 02:59:15;;;;;;;6.25;4.65;;;9.10;82.00;;;;;;5092558;28;20481;-74
2022/09/30 03:01:42;;;;;;;6.47;5.05;;;9.00;82.00;;;;;;5092530;28;20107;-74
2022/09/30 03:04:11;;;;;;;6.80;5.28;;;9.10;82.00;;;;;;5074410;28;20028;-74
2022/09/30 03:06:37;;;;;;;6.82;5.00;;;9.00;82.00;;;;;;5092531;28;20626;-74
2022/09/30 03:09:03;;;;;;;6.53;4.80;;;9.10;82.00;;;;;;5092600;28;20028;-74
2022/09/30 03:11:30;;;;;;;7.00;5.40;;;9.00;81.90;;;;;;5092649;28;20150;-74
2022/09/30 03:13:59;;;;;;;6.75;5.10;;;9.00;81.90;;;;;;5092817;28;20024;-74
2022/09/30 03:17:04;;;;;;;6.25;4.35;;;9.00;82.00;;;;;;5092266;28;20562;-74
2022/09/30 03:19:57;;;;;;;5.65;4.65;;;9.00;82.00;;;;;;5073779;28;20040;-74
2022/09/30 03:22:31;;;;;;;6.25;4.78;;;8.90;82.00;;;;;;5091955;28;20084;-74
2022/09/30 03:25:30;;;;;;;6.90;5.28;;;8.90;82.00;;;;;;5092309;28;20028;-74
2022/09/30 03:28:20;;;;;;;6.28;4.80;;;8.90;82.10;;;;;;5092526;28;20036;-74
2022/09/30 03:31:23;;;;;;;6.40;4.90;;;8.90;82.10;;;;;;5073717;28;20040;-73
2022/09/30 03:34:06;;;;;;;6.10;4.95;;;8.80;82.60;;;;;;5091959;28;20126;-74
2022/09/30 03:37:07;;;;;;;7.68;5.63;;;8.80;82.00;;;;;;5091960;28;20035;-74
2022/09/30 03:39:39;;;;;;;7.00;5.15;;;8.80;82.10;;;;;;5091969;28;20027;-74
2022/09/30 03:42:13;;;;;;;6.65;5.28;;;8.80;82.10;;;;;;5092102;28;20024;-74
2022/09/30 03:44:58;;;;;;;6.22;4.80;;;8.80;82.10;;;;;;5091812;28;20024;-74
2022/09/30 03:47:26;;;;;;;7.75;5.38;;;8.80;82.10;;;;;;5091978;28;20028;-74
2022/09/30 03:49:58;;;;;;;7.00;6.00;;;8.80;82.10;;;;;;5091498;28;20471;-74
2022/09/30 03:52:26;;;;;;;7.03;5.90;;;8.80;82.10;;;;;;5073518;28;20387;-74
2022/09/30 03:54:54;;;;;;;8.10;6.03;;;8.80;82.10;;;;;;5091708;28;20423;-74
2022/09/30 03:57:20;;;;;;;7.28;6.22;;;8.70;82.10;;;;;;5091715;28;20028;-74
2022/09/30 03:59:45;;;;;;;9.80;6.28;;;8.70;82.20;;;;;;5091615;28;20035;-73
2022/09/30 04:02:14;;;;;;;9.52;7.10;;;8.70;82.30;;;;;;5091600;28;20058;-74
2022/09/30 04:04:41;;;;;;;9.57;6.90;;;8.60;82.30;;;;;;5091668;28;20059;-74
2022/09/30 04:07:11;;;;;;;8.02;6.55;;;8.70;82.40;;;;;;5091431;28;20035;-75
2022/09/30 04:09:37;;;;;;;8.70;6.68;;;8.60;82.40;;;;;;5073010;28;20400;-74
2022/09/30 04:12:03;;;;;;;8.73;6.68;;;8.60;82.40;;;;;;5072950;28;20089;-74
2022/09/30 04:14:29;;;;;;;8.38;6.82;;;8.60;82.50;;;;;;5091221;28;20077;-74
2022/09/30 04:16:54;;;;;;;8.07;6.13;;;8.60;82.50;;;;;;5091552;28;20028;-74
2022/09/30 04:19:20;;;;;;;8.05;6.55;;;8.60;82.50;;;;;;5091292;28;20450;-74
2022/09/30 04:21:46;;;;;;;7.68;6.68;;;8.60;82.50;;;;;;5072817;28;20028;-74
2022/09/30 04:24:11;;;;;;;9.02;6.47;;;8.60;82.50;;;;;;5090815;28;20046;-74
2022/09/30 04:26:37;;;;;;;8.98;7.03;;;8.60;82.50;;;;;;5090488;28;20043;-75
2022/09/30 04:29:02;;;;;;;8.07;6.80;;;8.60;82.50;;;;;;5072685;28;20414;-74
2022/09/30 04:31:28;;;;;;;8.73;7.07;;;8.60;83.10;;;;;;5073228;28;20511;-74
2022/09/30 04:33:55;;;;;;;8.60;6.72;;;8.60;82.60;;;;;;5091157;28;20368;-74
2022/09/30 04:36:22;;;;;;;9.02;6.93;;;8.60;82.60;;;;;;5091147;28;20544;-74
2022/09/30 04:38:47;;;;;;;10.30;6.72;;;8.60;82.60;;;;;;5090926;28;20028;-73
2022/09/30 04:41:16;;;;;;;8.30;6.65;;;8.60;82.50;;;;;;5090953;28;20035;-74
2022/09/30 04:43:45;;;;;;;8.55;7.18;;;8.60;82.60;;;;;;5090924;28;20031;-74
2022/09/30 04:46:15;;;;;;;8.73;7.13;;;8.60;82.60;;;;;;5072988;28;20360;-73
2022/09/30 04:48:44;;;;;;;8.98;7.00;;;8.50;82.60;;;;;;5090944;28;20028;-73
2022/09/30 04:51:13;;;;;;;8.55;6.97;;;8.50;82.60;;;;;;5091022;28;20024;-74
2022/09/30 04:53:39;;;;;;;8.18;6.93;;;8.50;82.60;;;;;;5091058;28;20103;-73
2022/09/30 04:56:05;;;;;;;10.77;7.25;;;8.50;82.60;;;;;;5091020;28;20063;-74
2022/09/30 04:58:31;;;;;;;10.07;7.60;;;8.50;82.70;;;;;;5090910;28;20451;-74
2022/09/30 05:01:09;;;;;;;8.13;6.68;;;8.50;82.70;;;;;;5090789;28;20467;-74
2022/09/30 05:03:35;;;;;;;9.68;6.70;;;8.40;82.70;;;;;;5090756;28;20036;-73
2022/09/30 05:06:01;;;;;;;10.38;7.45;;;8.40;82.60;;;;;;5090943;28;20566;-73
2022/09/30 05:08:27;;;;;;;9.27;7.03;;;8.40;82.70;;;;;;5090823;28;20042;-73
2022/09/30 05:10:58;;;;;;;8.40;7.05;;;8.40;82.70;;;;;;5072328;28;20051;-74
2022/09/30 05:13:25;;;;;;;9.98;7.28;;;8.40;82.70;;;;;;5090743;28;20494;-73
2022/09/30 05:15:51;;;;;;;10.13;6.85;;;8.40;82.80;;;;;;5090920;28;20450;-73
2022/09/30 05:18:18;;;;;;;10.13;7.05;;;8.30;82.70;;;;;;5090744;28;20030;-74
2022/09/30 05:20:44;;;;;;;10.48;7.43;;;8.30;82.70;;;;;;5072765;28;20032;-73
2022/09/30 05:23:09;;;;;;;9.65;7.10;;;8.40;82.80;;;;;;5090661;28;20035;-73
2022/09/30 05:25:35;;;;;;;9.68;7.35;;;8.30;82.70;;;;;;5090858;28;20145;-73
2022/09/30 05:28:01;;;;;;;8.57;6.82;;;8.30;82.70;;;;;;5072951;28;20118;-73
2022/09/30 05:30:27;;;;;;;8.40;6.88;;;8.30;82.70;;;;;;5090722;28;20032;-73
2022/09/30 05:32:53;;;;;;;9.77;7.70;;;8.30;82.70;;;;;;5091015;28;20487;-73
2022/09/30 05:35:18;;;;;;;9.93;7.82;;;8.30;82.60;;;;;;5090653;28;20055;-74
2022/09/30 05:37:44;;;;;;;11.52;7.78;;;8.30;82.70;;;;;;5074026;28;20506;-73
2022/09/30 05:40:10;;;;;;;9.93;7.88;;;8.30;82.80;;;;;;5076078;28;20032;-74
2022/09/30 05:42:36;;;;;;;9.93;7.70;;;8.30;82.80;;;;;;5076062;28;20058;-73
2022/09/30 05:45:03;;;;;;;11.45;7.57;;;8.30;82.80;;;;;;5094168;28;20035;-73
2022/09/30 05:47:29;;;;;;;9.93;7.57;;;8.30;82.80;;;;;;5094226;28;20036;-74
2022/09/30 05:49:54;;;;;;;9.32;7.28;;;8.30;82.80;;;;;;5075526;28;20348;-75
2022/09/30 05:52:21;;;;;;;8.95;7.05;;;8.30;82.80;;;;;;5093824;28;20030;-73
2022/09/30 05:54:47;;;;;;;10.35;7.50;;;8.30;82.80;;;;;;5094008;28;20483;-73
2022/09/30 05:57:13;;;;;;;10.32;8.00;;;8.30;82.80;;;;;;5076326;28;20020;-74
2022/09/30 05:59:38;;;;;;;10.60;7.90;;;8.30;82.80;;;;;;5093974;28;20031;-74
2022/09/30 06:02:04;;;;;;;10.38;7.35;;;8.40;82.80;;;;;;5075605;28;20028;-73
2022/09/30 06:04:30;;;;;;;11.57;7.32;;;8.40;82.80;;;;;;5093815;28;20366;-74
2022/09/30 06:06:55;;;;;;;10.13;7.38;;;8.40;82.70;;;;;;5075323;28;20441;-74
2022/09/30 06:09:21;;;;;;;10.45;8.07;;;8.40;82.70;;;;;;5093346;28;20360;-73
2022/09/30 06:11:47;;;;;;;11.57;8.05;;;8.40;82.70;;;;;;5075216;28;20106;-73
2022/09/30 06:14:12;;;;;;;10.60;7.90;;;8.50;82.80;;;;;;5093200;28;20472;-73
2022/09/30 06:16:39;;;;;;;12.05;8.30;;;8.50;82.80;;;;;;5093249;28;20190;-74
2022/09/30 06:19:05;;;;;;;11.57;8.43;;;8.50;82.80;;;;;;5093619;28;20024;-73
2022/09/30 06:21:31;;;;;;;12.32;8.23;;;8.50;82.70;;;;;;5093065;28;20471;-74
2022/09/30 06:23:57;;;;;;;12.77;8.85;;;8.50;82.70;;;;;;5093021;28;20075;-74
2022/09/30 06:26:23;;;;;;;12.65;8.90;;;8.60;82.80;;;;;;5075140;28;20168;-73
2022/09/30 06:28:49;;;;;;;10.65;8.25;;;8.70;82.80;;;;;;5092654;28;20546;-74
2022/09/30 06:31:14;;;;;;;11.43;8.00;;;8.70;82.70;;;;;;5093260;28;20122;-73
2022/09/30 06:33:41;;;;;;;10.77;8.45;;;8.80;82.70;;;;;;5074710;28;20055;-73
2022/09/30 06:36:07;;;;;;;12.70;8.63;;;8.90;82.70;;;;;;5074887;28;20020;-74
2022/09/30 06:38:35;;;;;;;10.75;8.60;;;8.90;82.60;;;;;;5092960;28;20336;-74
2022/09/30 06:41:02;;;;;;;10.60;8.82;;;9.00;82.60;;;;;;5074719;28;20028;-73
2022/09/30 06:43:28;;;;;;;11.45;8.82;;;9.00;82.60;;;;;;5093128;28;20040;-74
2022/09/30 06:45:53;;;;;;;10.57;8.82;;;9.10;82.60;;;;;;5092681;28;20107;-74
2022/09/30 06:48:19;;;;;;;12.07;8.88;;;9.10;82.60;;;;;;5092182;28;20028;-73
2022/09/30 06:50:45;;;;;;;13.20;9.07;;;9.20;82.60;;;;;;5092739;28;20120;-74
2022/09/30 06:53:11;;;;;;;12.40;9.95;;;9.20;82.60;;;;;;5074341;28;20054;-74
2022/09/30 06:55:38;;;;;;;13.65;9.48;;;9.20;82.60;;;;;;5092692;28;20089;-74
2022/09/30 06:58:07;;;;;;;12.85;9.55;;;9.30;82.70;;;;;;5092498;28;20035;-74
2022/09/30 07:00:33;;;;;;;13.90;10.57;;;9.30;82.70;;;;;;5092516;28;20077;-74
2022/09/30 07:02:58;;;;;;;16.08;9.75;;;9.40;82.70;;;;;;5092355;28;20419;-74
2022/09/30 07:05:25;;;;;;;15.50;10.07;;;9.40;82.70;;;;;;5092501;28;20108;-74
2022/09/30 07:07:51;;;;;;;15.23;11.13;;;9.50;82.70;;;;;;5092258;28;20024;-74
2022/09/30 07:10:18;;;;;;;13.75;10.95;;;9.50;82.60;;;;;;5073961;28;20085;-74
2022/09/30 07:12:43;;;;;;;15.88;10.73;;;9.60;82.70;;;;;;5073872;28;20028;-74
2022/09/30 07:15:09;;;;;;;12.73;10.20;;;9.60;82.70;;;;;;5092486;28;20081;-74
2022/09/30 07:17:34;;;;;;;14.10;11.52;;;9.70;82.70;;;;;;5074324;28;20039;-74
2022/09/30 07:20:00;;;;;;;13.98;10.80;;;9.70;82.60;;;;;;5092516;28;20532;-74
2022/09/30 07:22:26;;;;;;;15.40;11.40;;;9.80;82.60;;;;;;5073987;28;20024;-74
2022/09/30 07:24:52;;;;;;;15.60;11.65;;;9.80;82.60;;;;;;5073733;28;20084;-74
2022/09/30 07:27:18;;;;;;;17.13;13.02;;;9.90;82.60;;;;;;5092011;28;20532;-74
2022/09/30 07:29:44;;;;;;;16.90;12.52;;;10.00;82.50;;;;;;5092045;28;20048;-75
2022/09/30 07:32:10;;;;;;;20.08;12.55;;;10.00;82.50;;;;;;5073870;28;20111;-74
2022/09/30 07:34:37;;;;;;;15.82;11.90;;;10.10;82.50;;;;;;5092161;28;20475;-75
2022/09/30 07:37:03;;;;;;;15.98;11.80;;;10.10;82.40;;;;;;5070774;28;20450;-75
2022/09/30 07:39:30;;;;;;;15.77;12.70;;;10.20;82.40;;;;;;5074125;28;20028;-75
2022/09/30 07:41:55;;;;;;;13.98;11.80;;;10.20;82.40;;;;;;5074574;28;20055;-74
2022/09/30 07:44:24;;;;;;;18.13;12.85;;;10.20;82.30;;;;;;5074348;28;20032;-74
2022/09/30 07:46:49;;;;;;;13.57;10.98;;;10.30;82.30;;;;;;5093605;28;20052;-74
2022/09/30 07:49:24;;;;;;;14.13;11.15;;;10.30;82.30;;;;;;5074094;28;20070;-74
2022/09/30 07:51:51;;;;;;;13.25;10.20;;;10.40;82.40;;;;;;5074091;28;20031;-74
2022/09/30 07:54:21;;;;;;;13.70;10.80;;;10.50;82.40;;;;;;5073669;28;20020;-75
2022/09/30 07:56:48;;;;;;;16.30;11.93;;;10.60;82.30;;;;;;5092120;28;20497;-74
2022/09/30 07:59:14;;;;;;;14.80;12.23;;;10.70;82.30;;;;;;5091672;28;20035;-75
2022/09/30 08:01:40;;;;;;;16.33;13.13;;;10.80;82.20;;;;;;5091851;28;20035;-74
2022/09/30 08:04:08;;;;;;;16.60;13.45;;;10.90;82.10;;;;;;5073996;28;20078;-74
2022/09/30 08:06:40;;;;;;;17.52;14.00;;;10.90;81.90;;;;;;5091727;28;20040;-75
2022/09/30 08:09:07;;;;;;;18.40;14.10;;;11.00;81.80;;;;;;5091491;28;20509;-75
2022/09/30 08:11:34;;;;;;;16.40;14.15;;;11.00;81.70;;;;;;5091393;28;20020;-74
2022/09/30 08:13:59;;;;;;;17.90;14.88;;;11.10;81.80;;;;;;5091416;28;20071;-74
2022/09/30 08:16:25;;;;;;;20.20;14.55;;;11.10;81.60;;;;;;5091510;28;20518;-75
2022/09/30 08:19:00;;;;;;;18.63;14.77;;;11.20;81.60;;;;;;5091384;28;20472;-75
2022/09/30 08:21:27;;;;;;;18.67;14.55;;;11.20;81.60;;;;;;5073248;28;20483;-74
2022/09/30 08:23:53;;;;;;;19.88;14.15;;;11.20;81.50;;;;;;5091270;28;20132;-75
2022/09/30 08:26:21;;;;;;;19.08;15.00;;;11.30;81.50;;;;;;5091429;28;20070;-73
2022/09/30 08:28:47;;;;;;;17.65;14.27;;;11.30;81.40;;;;;;5091015;28;20044;-74
2022/09/30 08:31:18;;;;;;;18.67;14.88;;;11.30;81.30;;;;;;5091166;28;20329;-74
2022/09/30 08:33:44;;;;;;;18.55;14.65;;;11.40;81.30;;;;;;5072860;28;20028;-74
2022/09/30 08:36:12;;;;;;;20.35;14.85;;;11.40;81.20;;;;;;5088132;28;20054;-73
2022/09/30 08:38:38;;;;;;;17.60;14.32;;;11.50;81.20;;;;;;5091091;28;20471;-74
2022/09/30 08:41:09;;;;;;;17.60;14.13;;;11.60;81.20;;;;;;5091080;28;20024;-74
2022/09/30 08:43:57;;;;;;;17.38;13.98;;;11.60;81.10;;;;;;5091113;28;20134;-74
2022/09/30 08:46:37;;;;;;;13.65;11.60;;;11.60;81.00;;;;;;5072930;28;20032;-73
2022/09/30 08:49:12;;;;;;;16.95;13.68;;;11.70;80.90;;;;;;5091045;28;20032;-73
2022/09/30 08:51:45;;;;;;;19.98;14.82;;;11.80;80.80;;;;;;5090876;28;20486;-74
2022/09/30 08:54:16;;;;;;;16.85;14.73;;;11.90;80.90;;;;;;5072592;28;20055;-73
2022/09/30 08:56:44;;;;;;;16.50;14.25;;;11.90;80.80;;;;;;5090734;28;20486;-73
2022/09/30 08:59:27;;;;;;;21.70;15.65;;;12.00;80.70;;;;;;5091074;28;20090;-74
2022/09/30 09:02:07;;;;;;;15.95;14.25;;;12.00;80.60;;;;;;5090876;28;20362;-74
2022/09/30 09:04:32;;;;;;;16.00;13.82;;;12.10;80.50;;;;;;5090759;28;20028;-74
2022/09/30 09:06:58;;;;;;;16.77;14.40;;;12.20;80.50;;;;;;5090734;28;20032;-73
2022/09/30 09:09:45;;;;;;;16.08;14.23;;;12.30;80.40;;;;;;5090766;28;20114;-73
2022/09/30 09:12:32;;;;;;;14.73;13.20;;;12.40;80.30;;;;;;5093215;28;20371;-74
2022/09/30 09:15:12;;;;;;;15.32;13.73;;;12.40;80.10;;;;;;5094690;28;20039;-74
2022/09/30 09:17:49;;;;;;;15.32;13.55;;;12.50;80.00;;;;;;5094652;28;20368;-75
2022/09/30 09:20:20;;;;;;;13.25;11.65;;;12.60;79.90;;;;;;5076285;28;20486;-75
2022/09/30 09:22:47;;;;;;;12.90;11.52;;;12.60;79.70;;;;;;5094415;28;20158;-75
2022/09/30 09:25:19;;;;;;;13.90;11.93;;;12.70;79.60;;;;;;5075924;28;20032;-75
2022/09/30 09:27:56;;;;;;;13.50;12.10;;;12.80;79.50;;;;;;5094267;28;20422;-75
2022/09/30 09:30:28;;;;;;;12.85;11.55;;;12.80;79.30;;;;;;5094234;28;20043;-74
2022/09/30 09:33:01;;;;;;;12.53;10.87;;;12.90;79.20;;;;;;5076023;28;20036;-74
2022/09/30 09:35:46;;;;;;;13.70;10.73;;;13.00;79.00;;;;;;5094420;28;20111;-75
2022/09/30 09:38:25;;;;;;;11.70;10.50;;;13.10;78.90;;;;;;5094185;28;20035;-76
2022/09/30 09:41:13;;;;;;;10.60;9.50;;;13.20;78.80;;;;;;5075751;28;20028;-74
2022/09/30 09:43:44;;;;;;;11.00;9.60;;;13.30;78.70;;;;;;5094087;28;20070;-75
2022/09/30 09:46:22;;;;;;;12.63;10.02;;;13.40;78.50;;;;;;5094139;28;20028;-75
2022/09/30 09:48:49;;;;;;;10.48;9.43;;;13.40;78.20;;;;;;5094226;28;20051;-75
2022/09/30 09:51:21;;;;;;;11.85;10.13;;;13.60;78.00;;;;;;5094327;28;20023;-75
2022/09/30 09:53:51;;;;;;;11.93;10.57;;;13.60;77.80;;;;;;5093810;28;20036;-75
2022/09/30 09:56:20;;;;;;;12.07;10.80;;;13.70;77.70;;;;;;5093766;28;20589;-75
2022/09/30 09:59:14;;;;;;;11.25;10.15;;;13.80;77.50;;;;;;5093648;28;20032;-75
2022/09/30 10:01:52;;;;;;;13.63;11.07;;;13.90;77.30;;;;;;5093754;28;20040;-74
2022/09/30 10:04:49;;;;;;;13.30;10.55;;;14.00;76.80;;;;;;5093612;28;20056;-74
2022/09/30 10:07:19;;;;;;;11.15;9.98;;;14.00;76.70;;;;;;5075521;28;20444;-74
2022/09/30 10:09:44;;;;;;;10.48;9.38;;;14.00;76.70;;;;;;5075217;28;20461;-74
2022/09/30 10:12:10;;;;;;;10.10;9.10;;;14.10;76.60;;;;;;5093507;28;20095;-75
2022/09/30 10:14:44;;;;;;;9.73;8.73;;;14.20;76.40;;;;;;5093432;28;20024;-74
2022/09/30 10:17:18;;;;;;;10.45;8.48;;;14.20;76.10;;;;;;5093503;28;20540;-74
2022/09/30 10:19:50;;;;;;;10.18;8.93;;;14.30;75.90;;;;;;5093397;28;20031;-74
2022/09/30 10:22:16;;;;;;;10.30;9.25;;;14.30;75.80;;;;;;5093264;28;20028;-75
2022/09/30 10:24:42;;;;;;;10.00;8.95;;;14.30;75.80;;;;;;5093026;28;20520;-74
2022/09/30 10:27:31;;;;;;;10.57;9.48;;;14.40;75.80;;;;;;5093682;28;20024;-75
2022/09/30 10:30:00;;;;;;;9.50;8.52;;;14.40;75.70;;;;;;5074955;28;20546;-74
2022/09/30 10:32:26;;;;;;;10.57;9.30;;;14.40;75.60;;;;;;5093512;28;20133;-74
2022/09/30 10:35:05;;;;;;;10.23;9.18;;;14.50;75.50;;;;;;5075036;28;20027;-75
2022/09/30 10:37:31;;;;;;;11.18;9.88;;;14.50;75.30;;;;;;5093258;28;20024;-75
2022/09/30 10:40:00;;;;;;;9.45;8.45;;;14.60;75.20;;;;;;5093004;28;20456;-73
2022/09/30 10:42:29;;;;;;;9.93;8.93;;;14.70;75.10;;;;;;5092824;28;20074;-74
2022/09/30 10:45:28;;;;;;;9.57;8.30;;;14.70;74.90;;;;;;5074687;28;20432;-74
2022/09/30 10:47:55;;;;;;;11.60;8.43;;;14.80;74.80;;;;;;5074157;28;20345;-75
2022/09/30 10:50:25;;;;;;;9.30;7.85;;;14.80;74.60;;;;;;5073860;28;20024;-74
2022/09/30 10:53:01;;;;;;;9.55;8.07;;;14.80;74.50;;;;;;5092125;28;20024;-74
2022/09/30 10:55:43;;;;;;;8.52;7.63;;;14.80;74.30;;;;;;5074172;28;20069;-74
2022/09/30 10:58:23;;;;;;;9.10;7.10;;;14.90;74.20;;;;;;5092377;28;20415;-74
2022/09/30 11:00:55;;;;;;;12.98;7.95;;;15.00;74.00;;;;;;5074056;28;20028;-74
2022/09/30 11:03:29;;;;;;;8.60;7.70;;;15.00;73.40;;;;;;5092643;28;20448;-74
2022/09/30 11:05:55;;;;;;;8.32;7.50;;;15.00;73.50;;;;;;5092154;28;20081;-74
2022/09/30 11:08:24;;;;;;;8.75;7.20;;;15.00;73.40;;;;;;5074190;28;20027;-74
2022/09/30 11:11:12;;;;;;;8.75;7.60;;;15.00;73.10;;;;;;5092369;28;20035;-74
2022/09/30 11:13:48;;;;;;;8.98;7.63;;;15.00;73.10;;;;;;5092259;28;20094;-75
2022/09/30 11:16:31;;;;;;;7.25;6.55;;;15.10;72.90;;;;;;5092155;28;20499;-75
2022/09/30 11:19:03;;;;;;;6.70;6.10;;;15.20;72.90;;;;;;5092037;28;20032;-75
2022/09/30 11:21:34;;;;;;;7.63;6.80;;;15.20;72.80;;;;;;5073823;28;20032;-74
2022/09/30 11:24:12;;;;;;;6.60;6.00;;;15.30;72.70;;;;;;5091810;28;20332;-74
2022/09/30 11:26:54;;;;;;;7.38;6.65;;;15.40;72.60;;;;;;5073401;28;20028;-75
2022/09/30 11:29:19;;;;;;;7.22;6.53;;;15.50;71.90;;;;;;5073370;28;20048;-74
2022/09/30 11:32:08;;;;;;;6.35;5.75;;;15.60;71.70;;;;;;5073735;28;20575;-74
2022/09/30 11:35:09;;;;;;;7.40;6.00;;;15.70;71.50;;;;;;5091642;28;20440;-74
2022/09/30 11:38:05;;;;;;;6.20;5.35;;;15.80;71.10;;;;;;5091742;28;20020;-74
2022/09/30 11:40:41;;;;;;;7.28;5.95;;;16.00;71.00;;;;;;5091728;28;20085;-75
2022/09/30 11:43:25;;;;;;;6.40;5.60;;;16.10;70.80;;;;;;5073590;28;20024;-74
2022/09/30 11:46:12;;;;;;;9.05;7.30;;;16.20;70.60;;;;;;5091866;28;20028;-74
2022/09/30 11:49:13;;;;;;;9.20;6.75;;;16.20;70.10;;;;;;5073652;28;20471;-73
2022/09/30 11:52:16;;;;;;;8.15;6.75;;;16.30;69.70;;;;;;5091997;28;20024;-74
2022/09/30 11:55:25;;;;;;;7.95;6.70;;;16.30;69.30;;;;;;5091342;28;20032;-74
2022/09/30 11:58:12;;;;;;;9.13;7.32;;;16.30;69.10;;;;;;5091415;28;20020;-75
2022/09/30 12:00:42;;;;;;;7.80;6.45;;;16.30;69.00;;;;;;5091403;28;20032;-75
2022/09/30 12:03:30;;;;;;;7.45;6.55;;;16.20;68.90;;;;;;5073311;28;20080;-75
2022/09/30 12:06:06;;;;;;;9.90;7.50;;;16.30;68.80;;;;;;5073593;28;20028;-74
2022/09/30 12:08:41;;;;;;;8.90;6.55;;;16.30;68.00;;;;;;5091631;28;20530;-75
2022/09/30 12:11:27;;;;;;;8.10;5.90;;;16.30;67.80;;;;;;5091325;28;20475;-75
2022/09/30 12:13:59;;;;;;;7.68;6.05;;;16.30;67.70;;;;;;5091364;28;20024;-74
2022/09/30 12:16:30;;;;;;;7.97;6.57;;;16.30;67.60;;;;;;5073245;28;20448;-75
2022/09/30 12:19:19;;;;;;;7.28;5.95;;;16.40;67.40;;;;;;5091526;28;20020;-75
2022/09/30 12:22:00;;;;;;;5.80;4.78;;;16.50;67.30;;;;;;5091518;28;20099;-74
2022/09/30 12:24:46;;;;;;;6.68;4.97;;;16.60;67.20;;;;;;5073499;28;20359;-75
2022/09/30 12:27:32;;;;;;;5.13;4.47;;;16.70;67.10;;;;;;5091117;28;20395;-75
2022/09/30 12:30:19;;;;;;;7.05;5.18;;;16.90;67.20;;;;;;5090897;28;20055;-73
2022/09/30 12:33:06;;;;;;;6.13;4.78;;;17.00;66.80;;;;;;5091246;28;20024;-74
2022/09/30 12:35:53;;;;;;;5.70;4.13;;;17.10;66.50;;;;;;5073113;28;20024;-74
2022/09/30 12:38:27;;;;;;;4.30;3.42;;;17.30;66.20;;;;;;5073044;28;20032;-74
2022/09/30 12:41:01;;;;;;;4.35;3.08;;;17.40;66.30;;;;;;5091245;28;20499;-74
2022/09/30 12:44:15;;;;;;;3.53;3.22;;;17.50;66.00;;;;;;5091495;28;20031;-75
2022/09/30 12:47:13;;;;;;;4.07;3.35;;;17.60;65.50;;;;;;5093117;28;20287;-75
2022/09/30 12:49:39;;;;;;;3.00;2.70;;;17.50;65.60;;;;;;5095405;28;20059;-75
2022/09/30 12:52:13;;;;;;;2.80;2.10;;;17.40;65.20;;;;;;5095636;28;20035;-74
2022/09/30 12:54:46;;;;;;;2.33;2.05;;;17.40;65.40;;;;;;5095390;28;20526;-75
2022/09/30 12:57:19;;;;;;;2.45;2.25;;;17.40;65.40;;;;;;5095442;28;20444;-75
2022/09/30 12:59:56;;;;;;;2.85;2.10;;;17.50;64.10;;;;;;5095287;28;20605;-75
2022/09/30 13:02:43;;;;;;;2.42;2.22;;;17.50;64.20;;;;;;5095240;28;20027;-74
2022/09/30 13:05:30;;;;;;;2.38;2.17;;;17.60;64.00;;;;;;5095689;28;20356;-75
2022/09/30 13:08:05;;;;;;;2.80;2.08;;;17.70;63.30;;;;;;5094881;28;20024;-74
2022/09/30 13:10:37;;;;;;;2.00;1.80;;;17.70;63.50;;;;;;5076976;28;20454;-74
2022/09/30 13:13:24;;;;;;;1.75;1.65;;;17.90;63.70;;;;;;5095018;28;20471;-75
2022/09/30 13:15:51;;;;;;;2.35;1.65;;;18.00;63.60;;;;;;5076606;28;20099;-74